sensor_id;sensor_type;location;lat;lon;timestamp;P1;durP1;ratioP1;P2;durP2;ratioP2
42108;SDS011;27765;51.228;7.626;2022-08-21T00:02:00;5.57;;;4.00;;
42108;SDS011;27765;51.228;7.626;2022-08-21T00:04:47;8.00;;;4.07;;
42108;SDS011;27765;51.228;7.626;2022-08-21T00:07:33;8.55;;;4.50;;
42108;SDS011;27765;51.228;7.626;2022-08-21T00:10:19;4.57;;;3.83;;
42108;SDS011;27765;51.228;7.626;2022-08-21T00:13:05;5.97;;;3.88;;
42108;SDS011;27765;51.228;7.626;2022-08-21T00:15:52;7.40;;;4.20;;
42108;SDS011;27765;51.228;7.626;2022-08-21T00:18:38;7.25;;;4.47;;
42108;SDS011;27765;51.228;7.626;2022-08-21T00:21:25;5.63;;;3.97;;
42108;SDS011;27765;51.228;7.626;2022-08-21T00:24:11;4.90;;;3.90;;
42108;SDS011;27765;51.228;7.626;2022-08-21T00:26:57;5.95;;;4.03;;
42108;SDS011;27765;51.228;7.626;2022-08-21T00:29:44;5.85;;;3.63;;
42108;SDS011;27765;51.228;7.626;2022-08-21T00:32:29;7.35;;;4.30;;
42108;SDS011;27765;51.228;7.626;2022-08-21T00:35:16;4.60;;;3.60;;
42108;SDS011;27765;51.228;7.626;2022-08-21T00:38:04;6.65;;;3.90;;
42108;SDS011;27765;51.228;7.626;2022-08-21T00:40:54;4.47;;;3.13;;
42108;SDS011;27765;51.228;7.626;2022-08-21T00:43:43;6.05;;;3.92;;
42108;SDS011;27765;51.228;7.626;2022-08-21T00:46:29;5.60;;;4.15;;
42108;SDS011;27765;51.228;7.626;2022-08-21T00:49:15;5.40;;;4.05;;
42108;SDS011;27765;51.228;7.626;2022-08-21T00:52:01;4.30;;;3.42;;
42108;SDS011;27765;51.228;7.626;2022-08-21T00:54:48;5.45;;;4.18;;
42108;SDS011;27765;51.228;7.626;2022-08-21T00:57:40;6.00;;;3.80;;
42108;SDS011;27765;51.228;7.626;2022-08-21T01:00:32;5.80;;;4.00;;
42108;SDS011;27765;51.228;7.626;2022-08-21T01:03:22;6.60;;;3.70;;
42108;SDS011;27765;51.228;7.626;2022-08-21T01:06:10;6.65;;;3.80;;
42108;SDS011;27765;51.228;7.626;2022-08-21T01:08:56;5.63;;;3.63;;
42108;SDS011;27765;51.228;7.626;2022-08-21T01:11:43;5.40;;;3.90;;
42108;SDS011;27765;51.228;7.626;2022-08-21T01:14:29;7.90;;;3.92;;
42108;SDS011;27765;51.228;7.626;2022-08-21T01:17:16;7.18;;;3.85;;
42108;SDS011;27765;51.228;7.626;2022-08-21T01:20:05;8.38;;;4.07;;
42108;SDS011;27765;51.228;7.626;2022-08-21T01:22:53;5.07;;;3.40;;
42108;SDS011;27765;51.228;7.626;2022-08-21T01:25:39;7.00;;;4.22;;
42108;SDS011;27765;51.228;7.626;2022-08-21T01:28:25;6.40;;;3.83;;
42108;SDS011;27765;51.228;7.626;2022-08-21T01:31:13;4.95;;;3.72;;
42108;SDS011;27765;51.228;7.626;2022-08-21T01:34:00;6.03;;;4.20;;
42108;SDS011;27765;51.228;7.626;2022-08-21T01:36:46;5.00;;;3.80;;
42108;SDS011;27765;51.228;7.626;2022-08-21T01:39:33;4.88;;;3.53;;
42108;SDS011;27765;51.228;7.626;2022-08-21T01:42:20;5.25;;;3.45;;
42108;SDS011;27765;51.228;7.626;2022-08-21T01:45:06;6.10;;;3.42;;
42108;SDS011;27765;51.228;7.626;2022-08-21T01:47:54;4.22;;;2.90;;
42108;SDS011;27765;51.228;7.626;2022-08-21T01:50:40;3.85;;;3.38;;
42108;SDS011;27765;51.228;7.626;2022-08-21T01:53:26;7.07;;;3.42;;
42108;SDS011;27765;51.228;7.626;2022-08-21T01:56:12;4.60;;;3.45;;
42108;SDS011;27765;51.228;7.626;2022-08-21T01:59:01;3.83;;;3.13;;
42108;SDS011;27765;51.228;7.626;2022-08-21T02:01:47;4.38;;;2.90;;
42108;SDS011;27765;51.228;7.626;2022-08-21T02:04:33;3.78;;;3.20;;
42108;SDS011;27765;51.228;7.626;2022-08-21T02:07:19;4.38;;;2.63;;
42108;SDS011;27765;51.228;7.626;2022-08-21T02:10:07;3.53;;;2.63;;
42108;SDS011;27765;51.228;7.626;2022-08-21T02:12:54;3.75;;;2.50;;
42108;SDS011;27765;51.228;7.626;2022-08-21T02:15:40;4.20;;;2.60;;
42108;SDS011;27765;51.228;7.626;2022-08-21T02:18:30;2.92;;;2.40;;
42108;SDS011;27765;51.228;7.626;2022-08-21T02:21:16;3.78;;;2.78;;
42108;SDS011;27765;51.228;7.626;2022-08-21T02:24:02;3.65;;;2.45;;
42108;SDS011;27765;51.228;7.626;2022-08-21T02:26:49;4.75;;;2.50;;
42108;SDS011;27765;51.228;7.626;2022-08-21T02:29:34;2.97;;;2.03;;
42108;SDS011;27765;51.228;7.626;2022-08-21T02:32:20;6.07;;;2.85;;
42108;SDS011;27765;51.228;7.626;2022-08-21T02:35:07;3.20;;;2.50;;
42108;SDS011;27765;51.228;7.626;2022-08-21T02:37:55;3.33;;;2.42;;
42108;SDS011;27765;51.228;7.626;2022-08-21T02:40:44;3.35;;;2.20;;
42108;SDS011;27765;51.228;7.626;2022-08-21T02:43:31;3.80;;;2.38;;
42108;SDS011;27765;51.228;7.626;2022-08-21T02:46:18;3.45;;;2.30;;
42108;SDS011;27765;51.228;7.626;2022-08-21T02:49:06;3.58;;;2.00;;
42108;SDS011;27765;51.228;7.626;2022-08-21T02:51:52;3.75;;;2.28;;
42108;SDS011;27765;51.228;7.626;2022-08-21T02:54:38;3.22;;;2.53;;
42108;SDS011;27765;51.228;7.626;2022-08-21T02:57:24;4.00;;;2.60;;
42108;SDS011;27765;51.228;7.626;2022-08-21T03:00:10;5.00;;;2.85;;
42108;SDS011;27765;51.228;7.626;2022-08-21T03:02:57;3.95;;;2.35;;
42108;SDS011;27765;51.228;7.626;2022-08-21T03:05:44;3.88;;;2.92;;
42108;SDS011;27765;51.228;7.626;2022-08-21T03:08:30;4.57;;;2.60;;
42108;SDS011;27765;51.228;7.626;2022-08-21T03:11:16;3.50;;;2.70;;
42108;SDS011;27765;51.228;7.626;2022-08-21T03:14:02;4.15;;;2.50;;
42108;SDS011;27765;51.228;7.626;2022-08-21T03:16:50;4.63;;;2.88;;
42108;SDS011;27765;51.228;7.626;2022-08-21T03:19:36;3.03;;;2.70;;
42108;SDS011;27765;51.228;7.626;2022-08-21T03:22:22;3.47;;;2.50;;
42108;SDS011;27765;51.228;7.626;2022-08-21T03:25:08;2.60;;;2.40;;
42108;SDS011;27765;51.228;7.626;2022-08-21T03:27:55;3.20;;;2.42;;
42108;SDS011;27765;51.228;7.626;2022-08-21T03:30:42;5.45;;;2.65;;
42108;SDS011;27765;51.228;7.626;2022-08-21T03:33:29;3.28;;;2.90;;
42108;SDS011;27765;51.228;7.626;2022-08-21T03:36:15;3.83;;;2.75;;
42108;SDS011;27765;51.228;7.626;2022-08-21T03:39:02;4.30;;;2.80;;
42108;SDS011;27765;51.228;7.626;2022-08-21T03:41:49;2.90;;;2.60;;
42108;SDS011;27765;51.228;7.626;2022-08-21T03:44:34;4.75;;;2.70;;
42108;SDS011;27765;51.228;7.626;2022-08-21T03:47:21;4.45;;;2.33;;
42108;SDS011;27765;51.228;7.626;2022-08-21T03:50:07;4.40;;;3.00;;
42108;SDS011;27765;51.228;7.626;2022-08-21T03:52:54;4.45;;;2.70;;
42108;SDS011;27765;51.228;7.626;2022-08-21T03:55:40;5.30;;;3.40;;
42108;SDS011;27765;51.228;7.626;2022-08-21T03:58:27;3.35;;;2.95;;
42108;SDS011;27765;51.228;7.626;2022-08-21T04:01:13;3.20;;;2.90;;
42108;SDS011;27765;51.228;7.626;2022-08-21T04:03:59;4.28;;;2.88;;
42108;SDS011;27765;51.228;7.626;2022-08-21T04:06:45;5.45;;;2.80;;
42108;SDS011;27765;51.228;7.626;2022-08-21T04:09:32;4.07;;;3.00;;
42108;SDS011;27765;51.228;7.626;2022-08-21T04:12:18;5.20;;;3.17;;
42108;SDS011;27765;51.228;7.626;2022-08-21T04:15:04;6.80;;;3.10;;
42108;SDS011;27765;51.228;7.626;2022-08-21T04:17:51;3.85;;;2.83;;
42108;SDS011;27765;51.228;7.626;2022-08-21T04:20:37;4.05;;;3.10;;
42108;SDS011;27765;51.228;7.626;2022-08-21T04:23:24;4.70;;;3.08;;
42108;SDS011;27765;51.228;7.626;2022-08-21T04:26:11;3.70;;;3.03;;
42108;SDS011;27765;51.228;7.626;2022-08-21T04:28:57;4.50;;;3.08;;
42108;SDS011;27765;51.228;7.626;2022-08-21T04:31:43;6.63;;;3.35;;
42108;SDS011;27765;51.228;7.626;2022-08-21T04:34:29;5.97;;;3.13;;
42108;SDS011;27765;51.228;7.626;2022-08-21T04:37:15;3.67;;;2.70;;
42108;SDS011;27765;51.228;7.626;2022-08-21T04:40:02;6.13;;;3.13;;
42108;SDS011;27765;51.228;7.626;2022-08-21T04:43:03;3.47;;;2.90;;
42108;SDS011;27765;51.228;7.626;2022-08-21T04:45:51;5.22;;;2.72;;
42108;SDS011;27765;51.228;7.626;2022-08-21T04:48:38;4.47;;;2.95;;
42108;SDS011;27765;51.228;7.626;2022-08-21T04:51:24;3.97;;;2.97;;
42108;SDS011;27765;51.228;7.626;2022-08-21T04:54:21;3.50;;;2.90;;
42108;SDS011;27765;51.228;7.626;2022-08-21T04:57:08;6.40;;;3.17;;
42108;SDS011;27765;51.228;7.626;2022-08-21T04:59:56;3.47;;;3.08;;
42108;SDS011;27765;51.228;7.626;2022-08-21T05:02:42;5.78;;;2.78;;
42108;SDS011;27765;51.228;7.626;2022-08-21T05:05:29;5.57;;;3.30;;
42108;SDS011;27765;51.228;7.626;2022-08-21T05:08:16;5.05;;;3.60;;
42108;SDS011;27765;51.228;7.626;2022-08-21T05:11:06;4.03;;;3.30;;
42108;SDS011;27765;51.228;7.626;2022-08-21T05:13:52;4.93;;;3.17;;
42108;SDS011;27765;51.228;7.626;2022-08-21T05:16:38;4.07;;;3.05;;
42108;SDS011;27765;51.228;7.626;2022-08-21T05:19:24;3.72;;;3.30;;
42108;SDS011;27765;51.228;7.626;2022-08-21T05:22:11;4.22;;;3.20;;
42108;SDS011;27765;51.228;7.626;2022-08-21T05:25:04;5.60;;;3.50;;
42108;SDS011;27765;51.228;7.626;2022-08-21T05:27:51;5.43;;;3.38;;
42108;SDS011;27765;51.228;7.626;2022-08-21T05:30:37;5.43;;;3.50;;
42108;SDS011;27765;51.228;7.626;2022-08-21T05:33:24;3.15;;;2.78;;
42108;SDS011;27765;51.228;7.626;2022-08-21T05:36:10;5.75;;;2.85;;
42108;SDS011;27765;51.228;7.626;2022-08-21T05:38:56;3.83;;;2.65;;
42108;SDS011;27765;51.228;7.626;2022-08-21T05:41:42;3.70;;;2.60;;
42108;SDS011;27765;51.228;7.626;2022-08-21T05:44:28;2.80;;;2.60;;
42108;SDS011;27765;51.228;7.626;2022-08-21T05:47:14;4.53;;;2.72;;
42108;SDS011;27765;51.228;7.626;2022-08-21T05:50:00;3.72;;;2.33;;
42108;SDS011;27765;51.228;7.626;2022-08-21T05:52:46;3.05;;;2.30;;
42108;SDS011;27765;51.228;7.626;2022-08-21T05:55:32;3.03;;;2.20;;
42108;SDS011;27765;51.228;7.626;2022-08-21T05:58:18;2.42;;;2.20;;
42108;SDS011;27765;51.228;7.626;2022-08-21T06:01:06;13.63;;;2.58;;
42108;SDS011;27765;51.228;7.626;2022-08-21T06:03:54;2.53;;;1.65;;
42108;SDS011;27765;51.228;7.626;2022-08-21T06:06:40;2.88;;;1.73;;
42108;SDS011;27765;51.228;7.626;2022-08-21T06:09:25;7.80;;;1.88;;
42108;SDS011;27765;51.228;7.626;2022-08-21T06:12:12;3.17;;;1.80;;
42108;SDS011;27765;51.228;7.626;2022-08-21T06:14:58;1.90;;;1.58;;
42108;SDS011;27765;51.228;7.626;2022-08-21T06:17:44;1.98;;;1.77;;
42108;SDS011;27765;51.228;7.626;2022-08-21T06:20:30;1.58;;;1.48;;
42108;SDS011;27765;51.228;7.626;2022-08-21T06:23:17;2.55;;;1.52;;
42108;SDS011;27765;51.228;7.626;2022-08-21T06:26:03;2.35;;;1.00;;
42108;SDS011;27765;51.228;7.626;2022-08-21T06:28:50;2.25;;;1.27;;
42108;SDS011;27765;51.228;7.626;2022-08-21T06:31:36;1.70;;;1.30;;
42108;SDS011;27765;51.228;7.626;2022-08-21T06:34:24;1.60;;;1.48;;
42108;SDS011;27765;51.228;7.626;2022-08-21T06:37:10;2.97;;;1.63;;
42108;SDS011;27765;51.228;7.626;2022-08-21T06:39:56;5.68;;;3.03;;
42108;SDS011;27765;51.228;7.626;2022-08-21T06:42:42;1.88;;;1.30;;
42108;SDS011;27765;51.228;7.626;2022-08-21T06:45:28;3.25;;;1.88;;
42108;SDS011;27765;51.228;7.626;2022-08-21T06:48:14;4.50;;;1.85;;
42108;SDS011;27765;51.228;7.626;2022-08-21T06:51:00;1.52;;;1.20;;
42108;SDS011;27765;51.228;7.626;2022-08-21T06:53:48;3.92;;;1.83;;
42108;SDS011;27765;51.228;7.626;2022-08-21T06:56:34;5.13;;;3.00;;
42108;SDS011;27765;51.228;7.626;2022-08-21T06:59:23;5.82;;;2.40;;
42108;SDS011;27765;51.228;7.626;2022-08-21T07:02:10;6.13;;;2.63;;
42108;SDS011;27765;51.228;7.626;2022-08-21T07:04:57;5.22;;;2.22;;
42108;SDS011;27765;51.228;7.626;2022-08-21T07:07:43;4.55;;;1.90;;
42108;SDS011;27765;51.228;7.626;2022-08-21T07:10:30;5.45;;;1.98;;
42108;SDS011;27765;51.228;7.626;2022-08-21T07:13:16;3.00;;;1.33;;
42108;SDS011;27765;51.228;7.626;2022-08-21T07:16:02;5.20;;;1.20;;
42108;SDS011;27765;51.228;7.626;2022-08-21T07:18:48;4.00;;;1.73;;
42108;SDS011;27765;51.228;7.626;2022-08-21T07:21:34;4.07;;;1.45;;
42108;SDS011;27765;51.228;7.626;2022-08-21T07:24:20;3.28;;;1.55;;
42108;SDS011;27765;51.228;7.626;2022-08-21T07:27:07;4.22;;;1.52;;
42108;SDS011;27765;51.228;7.626;2022-08-21T07:29:53;5.25;;;2.70;;
42108;SDS011;27765;51.228;7.626;2022-08-21T07:32:40;6.00;;;2.33;;
42108;SDS011;27765;51.228;7.626;2022-08-21T07:35:26;4.68;;;1.27;;
42108;SDS011;27765;51.228;7.626;2022-08-21T07:38:13;7.40;;;1.60;;
42108;SDS011;27765;51.228;7.626;2022-08-21T07:41:10;2.88;;;1.63;;
42108;SDS011;27765;51.228;7.626;2022-08-21T07:44:00;5.38;;;1.85;;
42108;SDS011;27765;51.228;7.626;2022-08-21T07:46:46;3.88;;;1.35;;
42108;SDS011;27765;51.228;7.626;2022-08-21T07:49:32;3.00;;;1.00;;
42108;SDS011;27765;51.228;7.626;2022-08-21T07:52:18;5.78;;;2.00;;
42108;SDS011;27765;51.228;7.626;2022-08-21T07:55:05;4.93;;;1.90;;
42108;SDS011;27765;51.228;7.626;2022-08-21T07:57:52;3.10;;;1.38;;
42108;SDS011;27765;51.228;7.626;2022-08-21T08:00:38;4.70;;;1.75;;
42108;SDS011;27765;51.228;7.626;2022-08-21T08:03:25;3.25;;;1.77;;
42108;SDS011;27765;51.228;7.626;2022-08-21T08:06:12;2.50;;;1.17;;
42108;SDS011;27765;51.228;7.626;2022-08-21T08:08:58;3.58;;;1.58;;
42108;SDS011;27765;51.228;7.626;2022-08-21T08:11:43;4.43;;;1.80;;
42108;SDS011;27765;51.228;7.626;2022-08-21T08:14:29;4.78;;;2.20;;
42108;SDS011;27765;51.228;7.626;2022-08-21T08:17:16;5.55;;;1.70;;
42108;SDS011;27765;51.228;7.626;2022-08-21T08:20:06;5.20;;;1.50;;
42108;SDS011;27765;51.228;7.626;2022-08-21T08:22:53;7.93;;;1.45;;
42108;SDS011;27765;51.228;7.626;2022-08-21T08:25:40;6.25;;;1.48;;
42108;SDS011;27765;51.228;7.626;2022-08-21T08:28:26;4.18;;;1.13;;
42108;SDS011;27765;51.228;7.626;2022-08-21T08:31:12;4.38;;;1.05;;
42108;SDS011;27765;51.228;7.626;2022-08-21T08:33:59;5.55;;;1.85;;
42108;SDS011;27765;51.228;7.626;2022-08-21T08:36:45;3.63;;;0.95;;
42108;SDS011;27765;51.228;7.626;2022-08-21T08:39:31;3.15;;;1.60;;
42108;SDS011;27765;51.228;7.626;2022-08-21T08:42:20;2.92;;;1.58;;
42108;SDS011;27765;51.228;7.626;2022-08-21T08:45:16;3.58;;;1.70;;
42108;SDS011;27765;51.228;7.626;2022-08-21T08:48:06;8.23;;;2.00;;
42108;SDS011;27765;51.228;7.626;2022-08-21T08:50:55;4.97;;;1.67;;
42108;SDS011;27765;51.228;7.626;2022-08-21T08:53:45;4.68;;;1.65;;
42108;SDS011;27765;51.228;7.626;2022-08-21T08:56:38;4.40;;;1.63;;
42108;SDS011;27765;51.228;7.626;2022-08-21T08:59:34;6.03;;;1.80;;
42108;SDS011;27765;51.228;7.626;2022-08-21T09:02:26;3.50;;;1.67;;
42108;SDS011;27765;51.228;7.626;2022-08-21T09:05:21;4.32;;;1.23;;
42108;SDS011;27765;51.228;7.626;2022-08-21T09:14:14;6.40;;;1.80;;
42108;SDS011;27765;51.228;7.626;2022-08-21T09:23:29;4.65;;;1.70;;
42108;SDS011;27765;51.228;7.626;2022-08-21T09:26:45;6.35;;;2.20;;
42108;SDS011;27765;51.228;7.626;2022-08-21T09:29:44;5.45;;;1.45;;
42108;SDS011;27765;51.228;7.626;2022-08-21T09:32:36;4.70;;;1.65;;
42108;SDS011;27765;51.228;7.626;2022-08-21T09:35:24;5.28;;;1.60;;
42108;SDS011;27765;51.228;7.626;2022-08-21T09:38:10;5.35;;;1.95;;
42108;SDS011;27765;51.228;7.626;2022-08-21T09:40:58;5.53;;;1.40;;
42108;SDS011;27765;51.228;7.626;2022-08-21T09:43:51;5.53;;;1.45;;
42108;SDS011;27765;51.228;7.626;2022-08-21T09:46:49;4.35;;;1.65;;
42108;SDS011;27765;51.228;7.626;2022-08-21T09:49:37;6.68;;;2.13;;
42108;SDS011;27765;51.228;7.626;2022-08-21T09:52:25;3.13;;;1.50;;
42108;SDS011;27765;51.228;7.626;2022-08-21T09:55:30;3.42;;;1.30;;
42108;SDS011;27765;51.228;7.626;2022-08-21T09:58:54;3.92;;;1.52;;
42108;SDS011;27765;51.228;7.626;2022-08-21T10:01:44;3.75;;;1.55;;
42108;SDS011;27765;51.228;7.626;2022-08-21T10:04:36;3.05;;;1.27;;
42108;SDS011;27765;51.228;7.626;2022-08-21T10:07:23;5.20;;;1.77;;
42108;SDS011;27765;51.228;7.626;2022-08-21T10:10:21;2.45;;;1.40;;
42108;SDS011;27765;51.228;7.626;2022-08-21T10:13:33;4.72;;;1.83;;
42108;SDS011;27765;51.228;7.626;2022-08-21T10:19:53;4.10;;;1.30;;
42108;SDS011;27765;51.228;7.626;2022-08-21T10:35:24;3.38;;;1.30;;
42108;SDS011;27765;51.228;7.626;2022-08-21T10:47:16;3.63;;;1.33;;
42108;SDS011;27765;51.228;7.626;2022-08-21T10:56:19;4.45;;;1.25;;
42108;SDS011;27765;51.228;7.626;2022-08-21T11:02:35;5.00;;;1.52;;
42108;SDS011;27765;51.228;7.626;2022-08-21T11:05:31;3.67;;;1.27;;
42108;SDS011;27765;51.228;7.626;2022-08-21T11:08:46;3.45;;;1.48;;
42108;SDS011;27765;51.228;7.626;2022-08-21T11:15:02;3.58;;;1.00;;
42108;SDS011;27765;51.228;7.626;2022-08-21T11:24:22;4.43;;;1.25;;
42108;SDS011;27765;51.228;7.626;2022-08-21T11:30:12;3.67;;;1.40;;
42108;SDS011;27765;51.228;7.626;2022-08-21T11:33:05;2.28;;;0.90;;
42108;SDS011;27765;51.228;7.626;2022-08-21T11:39:22;3.83;;;1.38;;
42108;SDS011;27765;51.228;7.626;2022-08-21T11:45:43;1.38;;;0.70;;
42108;SDS011;27765;51.228;7.626;2022-08-21T11:48:40;2.80;;;1.02;;
42108;SDS011;27765;51.228;7.626;2022-08-21T11:57:53;3.15;;;0.98;;
42108;SDS011;27765;51.228;7.626;2022-08-21T12:00:47;2.20;;;0.80;;
42108;SDS011;27765;51.228;7.626;2022-08-21T12:03:41;2.75;;;1.20;;
42108;SDS011;27765;51.228;7.626;2022-08-21T12:06:38;3.35;;;1.20;;
42108;SDS011;27765;51.228;7.626;2022-08-21T12:09:31;3.88;;;1.10;;
42108;SDS011;27765;51.228;7.626;2022-08-21T12:18:28;3.00;;;1.05;;
42108;SDS011;27765;51.228;7.626;2022-08-21T12:21:20;3.90;;;1.10;;
42108;SDS011;27765;51.228;7.626;2022-08-21T12:26:59;2.60;;;0.90;;
42108;SDS011;27765;51.228;7.626;2022-08-21T12:30:00;5.07;;;1.20;;
42108;SDS011;27765;51.228;7.626;2022-08-21T12:32:59;3.28;;;1.25;;
42108;SDS011;27765;51.228;7.626;2022-08-21T12:35:48;2.53;;;1.17;;
42108;SDS011;27765;51.228;7.626;2022-08-21T12:38:44;2.97;;;0.82;;
42108;SDS011;27765;51.228;7.626;2022-08-21T12:44:53;3.53;;;1.20;;
42108;SDS011;27765;51.228;7.626;2022-08-21T12:47:48;3.08;;;0.95;;
42108;SDS011;27765;51.228;7.626;2022-08-21T12:50:43;2.90;;;1.10;;
42108;SDS011;27765;51.228;7.626;2022-08-21T12:53:37;2.50;;;0.80;;
42108;SDS011;27765;51.228;7.626;2022-08-21T12:56:34;1.90;;;0.95;;
42108;SDS011;27765;51.228;7.626;2022-08-21T12:59:21;6.88;;;1.23;;
42108;SDS011;27765;51.228;7.626;2022-08-21T13:02:12;3.50;;;0.70;;
42108;SDS011;27765;51.228;7.626;2022-08-21T13:05:06;2.28;;;0.60;;
42108;SDS011;27765;51.228;7.626;2022-08-21T13:07:57;4.00;;;1.00;;
42108;SDS011;27765;51.228;7.626;2022-08-21T13:10:48;3.58;;;0.88;;
42108;SDS011;27765;51.228;7.626;2022-08-21T13:13:41;2.50;;;0.90;;
42108;SDS011;27765;51.228;7.626;2022-08-21T13:16:29;2.70;;;0.80;;
42108;SDS011;27765;51.228;7.626;2022-08-21T13:19:17;3.70;;;1.02;;
42108;SDS011;27765;51.228;7.626;2022-08-21T13:22:04;2.67;;;0.93;;
42108;SDS011;27765;51.228;7.626;2022-08-21T13:24:58;2.70;;;0.88;;
42108;SDS011;27765;51.228;7.626;2022-08-21T13:27:44;2.97;;;0.88;;
42108;SDS011;27765;51.228;7.626;2022-08-21T13:30:44;3.45;;;0.75;;
42108;SDS011;27765;51.228;7.626;2022-08-21T13:33:40;2.17;;;0.88;;
42108;SDS011;27765;51.228;7.626;2022-08-21T13:36:29;2.50;;;0.65;;
42108;SDS011;27765;51.228;7.626;2022-08-21T13:39:19;5.28;;;0.85;;
42108;SDS011;27765;51.228;7.626;2022-08-21T13:42:09;3.08;;;0.70;;
42108;SDS011;27765;51.228;7.626;2022-08-21T13:44:57;1.58;;;0.70;;
42108;SDS011;27765;51.228;7.626;2022-08-21T13:47:43;1.67;;;0.80;;
42108;SDS011;27765;51.228;7.626;2022-08-21T13:50:32;4.15;;;0.82;;
42108;SDS011;27765;51.228;7.626;2022-08-21T13:56:26;1.33;;;0.55;;
42108;SDS011;27765;51.228;7.626;2022-08-21T13:59:23;3.00;;;0.90;;
42108;SDS011;27765;51.228;7.626;2022-08-21T14:02:16;1.92;;;0.77;;
42108;SDS011;27765;51.228;7.626;2022-08-21T14:05:10;2.63;;;1.25;;
42108;SDS011;27765;51.228;7.626;2022-08-21T14:08:08;2.17;;;0.80;;
42108;SDS011;27765;51.228;7.626;2022-08-21T14:10:57;1.48;;;0.60;;
42108;SDS011;27765;51.228;7.626;2022-08-21T14:13:56;1.95;;;0.68;;
42108;SDS011;27765;51.228;7.626;2022-08-21T14:16:46;1.60;;;0.70;;
42108;SDS011;27765;51.228;7.626;2022-08-21T14:19:40;3.03;;;0.80;;
42108;SDS011;27765;51.228;7.626;2022-08-21T14:22:29;3.45;;;0.70;;
42108;SDS011;27765;51.228;7.626;2022-08-21T14:25:41;2.00;;;0.60;;
42108;SDS011;27765;51.228;7.626;2022-08-21T14:28:31;2.05;;;0.70;;
42108;SDS011;27765;51.228;7.626;2022-08-21T14:31:20;2.15;;;0.85;;
42108;SDS011;27765;51.228;7.626;2022-08-21T14:34:07;2.10;;;0.90;;
42108;SDS011;27765;51.228;7.626;2022-08-21T14:36:53;1.40;;;0.60;;
42108;SDS011;27765;51.228;7.626;2022-08-21T14:39:41;3.10;;;0.73;;
42108;SDS011;27765;51.228;7.626;2022-08-21T14:42:27;3.58;;;0.60;;
42108;SDS011;27765;51.228;7.626;2022-08-21T14:45:15;1.92;;;0.75;;
42108;SDS011;27765;51.228;7.626;2022-08-21T14:48:11;1.55;;;0.82;;
42108;SDS011;27765;51.228;7.626;2022-08-21T14:50:56;3.33;;;0.70;;
42108;SDS011;27765;51.228;7.626;2022-08-21T14:53:43;3.53;;;0.60;;
42108;SDS011;27765;51.228;7.626;2022-08-21T14:56:29;1.52;;;0.57;;
42108;SDS011;27765;51.228;7.626;2022-08-21T14:59:16;2.55;;;0.52;;
42108;SDS011;27765;51.228;7.626;2022-08-21T15:02:03;6.43;;;1.10;;
42108;SDS011;27765;51.228;7.626;2022-08-21T15:04:50;2.50;;;0.50;;
42108;SDS011;27765;51.228;7.626;2022-08-21T15:07:37;2.88;;;0.80;;
42108;SDS011;27765;51.228;7.626;2022-08-21T15:10:23;2.08;;;0.60;;
42108;SDS011;27765;51.228;7.626;2022-08-21T15:13:09;2.35;;;0.70;;
42108;SDS011;27765;51.228;7.626;2022-08-21T15:15:56;5.68;;;0.70;;
42108;SDS011;27765;51.228;7.626;2022-08-21T15:18:42;1.58;;;0.57;;
42108;SDS011;27765;51.228;7.626;2022-08-21T15:21:28;2.47;;;0.80;;
42108;SDS011;27765;51.228;7.626;2022-08-21T15:24:14;3.10;;;0.60;;
42108;SDS011;27765;51.228;7.626;2022-08-21T15:27:01;1.63;;;0.60;;
42108;SDS011;27765;51.228;7.626;2022-08-21T15:29:49;2.33;;;0.50;;
42108;SDS011;27765;51.228;7.626;2022-08-21T15:32:38;2.47;;;0.70;;
42108;SDS011;27765;51.228;7.626;2022-08-21T15:35:24;1.20;;;0.60;;
42108;SDS011;27765;51.228;7.626;2022-08-21T15:38:10;1.80;;;0.68;;
42108;SDS011;27765;51.228;7.626;2022-08-21T15:40:56;2.22;;;0.52;;
42108;SDS011;27765;51.228;7.626;2022-08-21T15:43:44;3.83;;;0.65;;
42108;SDS011;27765;51.228;7.626;2022-08-21T15:46:32;3.83;;;0.70;;
42108;SDS011;27765;51.228;7.626;2022-08-21T15:49:18;3.33;;;0.60;;
42108;SDS011;27765;51.228;7.626;2022-08-21T15:52:04;0.70;;;0.50;;
42108;SDS011;27765;51.228;7.626;2022-08-21T15:54:50;0.98;;;0.57;;
42108;SDS011;27765;51.228;7.626;2022-08-21T15:57:37;2.42;;;0.60;;
42108;SDS011;27765;51.228;7.626;2022-08-21T16:00:34;1.73;;;0.60;;
42108;SDS011;27765;51.228;7.626;2022-08-21T16:03:21;3.47;;;0.52;;
42108;SDS011;27765;51.228;7.626;2022-08-21T16:06:07;1.88;;;0.50;;
42108;SDS011;27765;51.228;7.626;2022-08-21T16:08:53;2.35;;;0.70;;
42108;SDS011;27765;51.228;7.626;2022-08-21T16:11:39;2.80;;;0.57;;
42108;SDS011;27765;51.228;7.626;2022-08-21T16:14:25;2.60;;;0.63;;
42108;SDS011;27765;51.228;7.626;2022-08-21T16:17:13;2.20;;;0.85;;
42108;SDS011;27765;51.228;7.626;2022-08-21T16:19:59;1.42;;;0.90;;
42108;SDS011;27765;51.228;7.626;2022-08-21T16:22:48;1.55;;;0.75;;
42108;SDS011;27765;51.228;7.626;2022-08-21T16:25:36;1.10;;;0.60;;
42108;SDS011;27765;51.228;7.626;2022-08-21T16:28:23;3.95;;;0.60;;
42108;SDS011;27765;51.228;7.626;2022-08-21T16:31:10;2.63;;;0.60;;
42108;SDS011;27765;51.228;7.626;2022-08-21T16:33:59;0.93;;;0.40;;
42108;SDS011;27765;51.228;7.626;2022-08-21T16:36:46;2.13;;;0.60;;
42108;SDS011;27765;51.228;7.626;2022-08-21T16:39:32;1.45;;;0.50;;
42108;SDS011;27765;51.228;7.626;2022-08-21T16:42:20;2.97;;;0.65;;
42108;SDS011;27765;51.228;7.626;2022-08-21T16:45:12;1.67;;;0.70;;
42108;SDS011;27765;51.228;7.626;2022-08-21T16:48:00;1.48;;;0.80;;
42108;SDS011;27765;51.228;7.626;2022-08-21T16:50:50;1.20;;;0.57;;
42108;SDS011;27765;51.228;7.626;2022-08-21T16:53:37;1.80;;;0.70;;
42108;SDS011;27765;51.228;7.626;2022-08-21T16:56:23;1.20;;;0.50;;
42108;SDS011;27765;51.228;7.626;2022-08-21T16:59:09;5.07;;;1.15;;
42108;SDS011;27765;51.228;7.626;2022-08-21T17:01:56;2.10;;;0.70;;
42108;SDS011;27765;51.228;7.626;2022-08-21T17:04:42;1.48;;;0.60;;
42108;SDS011;27765;51.228;7.626;2022-08-21T17:07:30;2.55;;;0.63;;
42108;SDS011;27765;51.228;7.626;2022-08-21T17:10:16;2.38;;;0.60;;
42108;SDS011;27765;51.228;7.626;2022-08-21T17:13:03;2.83;;;0.70;;
42108;SDS011;27765;51.228;7.626;2022-08-21T17:15:49;1.40;;;0.50;;
42108;SDS011;27765;51.228;7.626;2022-08-21T17:18:36;1.55;;;0.80;;
42108;SDS011;27765;51.228;7.626;2022-08-21T17:21:22;2.22;;;0.68;;
42108;SDS011;27765;51.228;7.626;2022-08-21T17:24:08;1.45;;;0.50;;
42108;SDS011;27765;51.228;7.626;2022-08-21T17:26:55;1.73;;;0.68;;
42108;SDS011;27765;51.228;7.626;2022-08-21T17:29:41;0.88;;;0.52;;
42108;SDS011;27765;51.228;7.626;2022-08-21T17:32:27;1.23;;;0.70;;
42108;SDS011;27765;51.228;7.626;2022-08-21T17:35:15;2.03;;;0.57;;
42108;SDS011;27765;51.228;7.626;2022-08-21T17:38:01;1.20;;;0.47;;
42108;SDS011;27765;51.228;7.626;2022-08-21T17:40:47;1.70;;;0.70;;
42108;SDS011;27765;51.228;7.626;2022-08-21T17:43:37;2.25;;;0.60;;
42108;SDS011;27765;51.228;7.626;2022-08-21T17:46:26;1.98;;;0.70;;
42108;SDS011;27765;51.228;7.626;2022-08-21T17:49:13;2.78;;;0.63;;
42108;SDS011;27765;51.228;7.626;2022-08-21T17:52:00;1.50;;;0.50;;
42108;SDS011;27765;51.228;7.626;2022-08-21T17:54:46;1.55;;;0.40;;
42108;SDS011;27765;51.228;7.626;2022-08-21T17:57:33;3.53;;;1.00;;
42108;SDS011;27765;51.228;7.626;2022-08-21T18:00:21;2.65;;;0.60;;
42108;SDS011;27765;51.228;7.626;2022-08-21T18:03:10;2.80;;;0.95;;
42108;SDS011;27765;51.228;7.626;2022-08-21T18:06:00;1.52;;;0.70;;
42108;SDS011;27765;51.228;7.626;2022-08-21T18:08:46;1.77;;;0.40;;
42108;SDS011;27765;51.228;7.626;2022-08-21T18:11:32;1.02;;;0.57;;
42108;SDS011;27765;51.228;7.626;2022-08-21T18:14:21;1.85;;;0.60;;
42108;SDS011;27765;51.228;7.626;2022-08-21T18:17:13;1.27;;;0.32;;
42108;SDS011;27765;51.228;7.626;2022-08-21T18:20:02;1.30;;;0.70;;
42108;SDS011;27765;51.228;7.626;2022-08-21T18:22:51;2.40;;;0.85;;
42108;SDS011;27765;51.228;7.626;2022-08-21T18:25:37;1.25;;;0.73;;